Dades meteomassalio
Diari Summary for Maig 28, 2017 Units:  Metric    English   Both
« Previous Day
Next Day »
Diari Semanal Mensual Anual Personalitzat
  Maxima: Minima: Mijana:
Temperatura: 28.7 °C 13.5 °C 21.9 °C
Rosada: 16.3 °C 11.6 °C 13.8 °C
Humitat: 88 % 39 % 63 %
Velocitat del vent: 37.0 km/h 0.0 km/h 11.1 km/h
Racha vent: 37.0 km/h - -
Vent:- - ESE
Pressio: 1018.2 hPa 1014.8 hPa -
Pluja: 0.0 mm    
Historical Graphs
 
 
Tabular Data for Maig 28, 2017
Time Temperature Dew Point Pressure Wind Wind Speed Wind Gust Humidity Rainfall Rate (Hourly) solar Conditions
00:04 19.5 °C 15.2 °C 1016.8 hPa Calm     76 % 0.0 mm 0.0 W/m2 CLR
00:09 19.5 °C 15.2 °C 1016.8 hPa Calm     76 % 0.0 mm 0.0 W/m2 CLR
00:14 19.4 °C 15.1 °C 1016.8 hPa Calm     76 % 0.0 mm 0.0 W/m2 CLR
00:19 19.4 °C 15.3 °C 1017.2 hPa Calm     77 % 0.0 mm 0.0 W/m2 CLR
00:24 19.3 °C 15.4 °C 1017.2 hPa Calm     78 % 0.0 mm 0.0 W/m2 CLR
00:29 19.3 °C 15.4 °C 1017.2 hPa Calm     78 % 0.0 mm 0.0 W/m2 CLR
00:34 19.2 °C 15.3 °C 1017.2 hPa Calm     78 % 0.0 mm 0.0 W/m2 CLR
00:39 19.2 °C 15.4 °C 1017.2 hPa Calm     79 % 0.0 mm 0.0 W/m2 CLR
00:44 19.1 °C 15.3 °C 1017.2 hPa Calm     79 % 0.0 mm 0.0 W/m2 CLR
00:49 19.0 °C 15.3 °C 1017.2 hPa Calm     79 % 0.0 mm 0.0 W/m2 CLR
00:54 18.9 °C 15.2 °C 1017.2 hPa Calm     79 % 0.0 mm 0.0 W/m2 CLR
00:59 18.8 °C 15.1 °C 1017.2 hPa Calm     79 % 0.0 mm 0.0 W/m2 CLR
01:04 18.6 °C 14.9 °C 1017.2 hPa Calm     79 % 0.0 mm 0.0 W/m2 CLR
01:09 18.5 °C 15.0 °C 1017.2 hPa Calm     80 % 0.0 mm 0.0 W/m2 CLR
01:14 18.2 °C 14.7 °C 1017.2 hPa Calm     80 % 0.0 mm 0.0 W/m2 CLR
01:19 18.2 °C 15.1 °C 1017.2 hPa Calm     82 % 0.0 mm 0.0 W/m2 CLR
01:24 18.3 °C 15.2 °C 1017.2 hPa Calm     82 % 0.0 mm 0.0 W/m2 CLR
01:29 18.6 °C 15.4 °C 1017.2 hPa ESE 5.6 km/h 5.6 km/h 82 % 0.0 mm 0.0 W/m2 CLR
01:34 18.7 °C 15.3 °C 1017.2 hPa ESE 1.9 km/h 1.9 km/h 81 % 0.0 mm 0.0 W/m2 CLR
01:39 18.7 °C 15.4 °C 1017.2 hPa Calm     81 % 0.0 mm 0.0 W/m2 CLR
01:44 18.7 °C 15.3 °C 1017.2 hPa Calm     81 % 0.0 mm 0.0 W/m2 CLR
01:49 18.6 °C 15.1 °C 1017.2 hPa Calm     80 % 0.0 mm 0.0 W/m2 CLR
01:54 18.4 °C 14.9 °C 1017.2 hPa Calm     80 % 0.0 mm 0.0 W/m2 CLR
01:59 18.3 °C 14.8 °C 1017.2 hPa Calm     80 % 0.0 mm 0.0 W/m2 CLR
02:04 18.1 °C 14.6 °C 1016.8 hPa Calm     80 % 0.0 mm 0.0 W/m2 CLR
02:09 17.8 °C 14.3 °C 1016.8 hPa Calm     80 % 0.0 mm 0.0 W/m2 CLR
02:14 17.8 °C 14.7 °C 1016.8 hPa Calm     82 % 0.0 mm 0.0 W/m2 CLR
02:19 17.8 °C 14.7 °C 1016.8 hPa Calm     82 % 0.0 mm 0.0 W/m2 CLR
02:24 17.9 °C 14.8 °C 1016.8 hPa Calm     82 % 0.0 mm 0.0 W/m2 CLR
02:29 17.8 °C 14.7 °C 1016.8 hPa Calm     82 % 0.0 mm 0.0 W/m2 CLR
02:34 17.8 °C 14.7 °C 1016.8 hPa Calm     82 % 0.0 mm 0.0 W/m2 CLR
02:39 17.8 °C 14.7 °C 1016.8 hPa Calm     82 % 0.0 mm 0.0 W/m2 CLR
02:44 17.8 °C 14.7 °C 1016.8 hPa Calm     82 % 0.0 mm 0.0 W/m2 CLR
02:49 17.8 °C 14.5 °C 1016.8 hPa Calm     81 % 0.0 mm 0.0 W/m2 CLR
02:54 17.5 °C 14.0 °C 1016.8 hPa Calm     80 % 0.0 mm 0.0 W/m2 CLR
02:59 17.2 °C 13.9 °C 1016.8 hPa Calm     81 % 0.0 mm 0.0 W/m2 CLR
03:04 17.1 °C 13.9 °C 1016.8 hPa Calm     82 % 0.0 mm 0.0 W/m2 CLR
03:09 16.9 °C 13.8 °C 1016.8 hPa Calm     82 % 0.0 mm 0.0 W/m2 CLR
03:14 16.8 °C 13.9 °C 1016.8 hPa Calm     83 % 0.0 mm 0.0 W/m2 CLR
03:19 16.7 °C 13.6 °C 1016.8 hPa Calm     82 % 0.0 mm 0.0 W/m2 CLR
03:24 16.4 °C 13.2 °C 1016.8 hPa Calm     81 % 0.0 mm 0.0 W/m2 CLR
03:30 16.3 °C 13.2 °C 1016.8 hPa Calm     82 % 0.0 mm 0.0 W/m2 CLR
03:35 16.2 °C 13.3 °C 1016.8 hPa Calm     83 % 0.0 mm 0.0 W/m2 CLR
03:40 16.1 °C 13.1 °C 1016.8 hPa Calm     82 % 0.0 mm 0.0 W/m2 CLR
03:45 16.1 °C 13.2 °C 1016.8 hPa Calm     83 % 0.0 mm 0.0 W/m2 CLR
03:50 15.9 °C 13.0 °C 1016.8 hPa Calm     83 % 0.0 mm 0.0 W/m2 CLR
03:55 15.8 °C 12.9 °C 1016.8 hPa Calm     83 % 0.0 mm 0.0 W/m2 CLR
04:05 15.5 °C 12.6 °C 1016.8 hPa Calm     83 % 0.0 mm 0.0 W/m2 CLR
04:10 15.4 °C 12.8 °C 1016.8 hPa Calm     84 % 0.0 mm 0.0 W/m2 CLR
04:15 15.4 °C 12.7 °C 1016.8 hPa Calm     84 % 0.0 mm 0.0 W/m2 CLR
04:20 15.4 °C 12.7 °C 1016.8 hPa Calm     84 % 0.0 mm 0.0 W/m2 CLR
04:25 15.3 °C 12.8 °C 1016.8 hPa Calm     85 % 0.0 mm 0.0 W/m2 CLR
04:30 15.3 °C 12.8 °C 1016.8 hPa Calm     85 % 0.0 mm 0.0 W/m2 CLR
04:35 15.2 °C 12.7 °C 1016.8 hPa Calm     85 % 0.0 mm 0.0 W/m2 CLR
04:40 15.1 °C 12.8 °C 1016.8 hPa Calm     86 % 0.0 mm 0.0 W/m2 CLR
04:45 15.2 °C 12.8 °C 1016.8 hPa Calm     86 % 0.0 mm 0.0 W/m2 CLR
04:46 15.2 °C 12.8 °C 1016.8 hPa Calm     86 % 0.0 mm 0.0 W/m2 CLR
04:51 15.1 °C 12.8 °C 1016.8 hPa Calm     86 % 0.0 mm 0.0 W/m2 CLR
04:56 15.0 °C 12.5 °C 1016.8 hPa Calm     85 % 0.0 mm 0.0 W/m2 CLR
05:01 14.9 °C 12.6 °C 1016.8 hPa Calm     86 % 0.0 mm 0.0 W/m2 CLR
05:06 14.9 °C 12.8 °C 1016.8 hPa Calm     87 % 0.0 mm 0.0 W/m2 CLR
05:11 14.8 °C 12.5 °C 1016.8 hPa Calm     86 % 0.0 mm 0.0 W/m2 CLR
05:16 14.7 °C 12.3 °C 1016.8 hPa Calm     86 % 0.0 mm 0.0 W/m2 CLR
05:21 14.6 °C 12.4 °C 1016.8 hPa Calm     87 % 0.0 mm 0.0 W/m2 CLR
05:26 14.6 °C 12.4 °C 1016.8 hPa Calm     87 % 0.0 mm 0.0 W/m2 CLR
05:31 14.5 °C 12.3 °C 1016.8 hPa Calm     87 % 0.0 mm 0.0 W/m2 CLR
05:36 14.4 °C 12.3 °C 1016.8 hPa Calm     87 % 0.0 mm 0.0 W/m2 CLR
05:41 14.4 °C 12.3 °C 1017.2 hPa Calm     87 % 0.0 mm 0.0 W/m2 CLR
05:46 14.4 °C 12.4 °C 1017.2 hPa Calm     88 % 0.0 mm 0.0 W/m2 CLR
05:51 14.4 °C 12.4 °C 1017.2 hPa Calm     88 % 0.0 mm 0.0 W/m2 CLR
05:56 14.3 °C 12.2 °C 1017.2 hPa Calm     87 % 0.0 mm 0.0 W/m2 CLR
06:01 14.2 °C 12.1 °C 1017.2 hPa Calm     87 % 0.0 mm 0.0 W/m2 CLR
06:06 14.1 °C 11.9 °C 1017.2 hPa Calm     87 % 0.0 mm 0.0 W/m2 CLR
06:11 13.9 °C 11.8 °C 1017.2 hPa Calm     87 % 0.0 mm 0.0 W/m2 CLR
06:16 13.8 °C 11.7 °C 1017.2 hPa Calm     87 % 0.0 mm 0.0 W/m2 CLR
06:21 13.7 °C 11.6 °C 1017.2 hPa Calm     87 % 0.0 mm 0.0 W/m2 OVC
06:26 13.7 °C 11.6 °C 1017.5 hPa Calm     87 % 0.0 mm 5.0 W/m2 OVC
06:31 13.6 °C 11.7 °C 1017.5 hPa Calm     88 % 0.0 mm 7.0 W/m2 OVC
06:33 13.6 °C 11.6 °C 1017.5 hPa Calm     88 % 0.0 mm 9.0 W/m2 OVC
06:38 13.5 °C 11.6 °C 1017.5 hPa Calm     88 % 0.0 mm 14.0 W/m2 BKN
06:43 13.5 °C 11.6 °C 1017.5 hPa Calm     88 % 0.0 mm 25.0 W/m2 BKN
06:44 13.5 °C 11.6 °C 1017.5 hPa Calm     88 % 0.0 mm 26.0 W/m2 BKN
06:49 13.5 °C 11.6 °C 1017.5 hPa Calm     88 % 0.0 mm 32.0 W/m2 BKN
06:54 13.5 °C 11.6 °C 1017.5 hPa Calm     88 % 0.0 mm 37.0 W/m2 BKN
06:59 13.6 °C 11.6 °C 1017.5 hPa Calm     88 % 0.0 mm 44.0 W/m2 BKN
07:04 13.7 °C 11.7 °C 1017.5 hPa Calm     88 % 0.0 mm 54.0 W/m2 SCT
07:09 13.7 °C 11.8 °C 1017.8 hPa Calm     88 % 0.0 mm 65.0 W/m2 SCT
07:14 13.8 °C 11.8 °C 1017.5 hPa Calm     88 % 0.0 mm 83.0 W/m2 FEW
07:19 13.9 °C 12.0 °C 1017.8 hPa Calm     88 % 0.0 mm 84.0 W/m2 FEW
07:24 14.2 °C 12.2 °C 1017.8 hPa Calm     88 % 0.0 mm 102.0 W/m2 CLR
07:34 14.6 °C 12.2 °C 1017.8 hPa Calm     86 % 0.0 mm 121.0 W/m2 CLR
07:39 14.8 °C 12.4 °C 1017.8 hPa Calm     86 % 0.0 mm 128.0 W/m2 CLR
07:44 15.1 °C 12.7 °C 1017.8 hPa Calm     86 % 0.0 mm 128.0 W/m2 CLR
07:49 15.3 °C 12.8 °C 1017.8 hPa Calm     85 % 0.0 mm 134.0 W/m2 CLR
07:54 15.5 °C 12.8 °C 1017.8 hPa Calm     84 % 0.0 mm 132.0 W/m2 CLR
07:59 15.7 °C 13.0 °C 1017.8 hPa Calm     84 % 0.0 mm 148.0 W/m2 CLR
08:04 16.0 °C 13.1 °C 1017.8 hPa Calm     83 % 0.0 mm 142.0 W/m2 CLR
08:09 16.3 °C 13.2 °C 1017.8 hPa Calm     82 % 0.0 mm 134.0 W/m2 CLR
08:14 16.5 °C 13.2 °C 1017.8 hPa Calm     81 % 0.0 mm 165.0 W/m2 CLR
08:19 16.7 °C 13.4 °C 1017.8 hPa Calm     81 % 0.0 mm 188.0 W/m2 CLR
08:24 17.0 °C 13.5 °C 1017.8 hPa Calm     80 % 0.0 mm 206.0 W/m2 CLR
08:29 17.4 °C 13.9 °C 1017.8 hPa Calm     80 % 0.0 mm 227.0 W/m2 CLR
08:34 17.9 °C 14.4 °C 1017.8 hPa Calm     80 % 0.0 mm 287.0 W/m2 CLR
08:39 18.6 °C 14.8 °C 1017.8 hPa Calm     79 % 0.0 mm 304.0 W/m2 CLR
08:44 19.4 °C 14.8 °C 1017.8 hPa Calm     75 % 0.0 mm 315.0 W/m2 CLR
08:49 20.0 °C 15.0 °C 1017.8 hPa Calm     73 % 0.0 mm 353.0 W/m2 CLR
08:51 20.1 °C 14.9 °C 1017.8 hPa Calm     72 % 0.0 mm 360.0 W/m2 CLR
08:56 20.4 °C 15.2 °C 1017.8 hPa Calm     72 % 0.0 mm 355.0 W/m2 CLR
09:01 20.8 °C 15.3 °C 1017.8 hPa Calm     71 % 0.0 mm 374.0 W/m2 CLR
09:06 21.3 °C 15.3 °C 1017.8 hPa Calm     69 % 0.0 mm 424.0 W/m2 CLR
09:11 21.7 °C 15.6 °C 1017.8 hPa Calm     68 % 0.0 mm 394.0 W/m2 CLR
09:16 22.2 °C 15.8 °C 1017.8 hPa Calm     67 % 0.0 mm 387.0 W/m2 CLR
09:21 22.4 °C 15.6 °C 1018.2 hPa Calm     65 % 0.0 mm 408.0 W/m2 CLR
09:26 22.5 °C 15.8 °C 1018.2 hPa Calm     66 % 0.0 mm 323.0 W/m2 CLR
09:31 22.5 °C 15.6 °C 1017.8 hPa Calm     65 % 0.0 mm 388.0 W/m2 CLR
09:36 22.7 °C 16.0 °C 1017.8 hPa Calm     66 % 0.0 mm 434.0 W/m2 CLR
09:41 22.7 °C 16.0 °C 1017.8 hPa East 13.0 km/h 13.0 km/h 66 % 0.0 mm 434.0 W/m2 CLR
09:51 22.8 °C 16.2 °C 1018.2 hPa East 4.8 km/h 4.8 km/h 66 % 0.0 mm 501.0 W/m2 CLR
09:56 23.1 °C 16.2 °C 1017.8 hPa ESE 7.4 km/h 7.4 km/h 65 % 0.0 mm 468.0 W/m2 CLR
10:01 23.3 °C 16.1 °C 1017.8 hPa East 9.3 km/h   64 % 0.0 mm 489.0 W/m2 CLR
10:06 23.6 °C 16.3 °C 1018.2 hPa ENE 9.3 km/h 9.3 km/h 64 % 0.0 mm 566.0 W/m2 CLR
10:11 23.9 °C 15.7 °C 1017.8 hPa ENE 9.3 km/h 9.3 km/h 60 % 0.0 mm 557.0 W/m2 CLR
10:16 23.9 °C 15.7 °C 1017.8 hPa East 11.1 km/h 11.1 km/h 60 % 0.0 mm 550.0 W/m2 CLR
10:21 24.0 °C 15.2 °C 1018.2 hPa ESE 14.8 km/h 14.8 km/h 58 % 0.0 mm 436.0 W/m2 CLR
10:26 24.1 °C 15.3 °C 1017.8 hPa SE 14.8 km/h 14.8 km/h 58 % 0.0 mm 677.0 W/m2 CLR
10:31 24.2 °C 15.4 °C 1018.2 hPa ESE 16.7 km/h 16.7 km/h 58 % 0.0 mm 657.0 W/m2 CLR
10:36 24.3 °C 15.3 °C 1017.8 hPa ESE 18.5 km/h 18.5 km/h 57 % 0.0 mm 647.0 W/m2 CLR
10:41 24.4 °C 15.1 °C 1017.8 hPa SE 18.5 km/h 18.5 km/h 56 % 0.0 mm 461.0 W/m2 CLR
10:46 24.5 °C 15.4 °C 1017.8 hPa ESE 18.5 km/h 18.5 km/h 57 % 0.0 mm 517.0 W/m2 CLR
10:51 24.3 °C 15.3 °C 1017.8 hPa East 14.8 km/h 14.8 km/h 57 % 0.0 mm 434.0 W/m2 CLR
10:56 24.5 °C 15.4 °C 1017.8 hPa ESE 14.8 km/h 14.8 km/h 57 % 0.0 mm 640.0 W/m2 CLR
11:01 24.7 °C 15.3 °C 1017.8 hPa SE 14.8 km/h 14.8 km/h 56 % 0.0 mm 645.0 W/m2 CLR
11:06 24.9 °C 15.2 °C 1017.8 hPa ENE 18.5 km/h 18.5 km/h 55 % 0.0 mm 596.0 W/m2 CLR
11:11 25.1 °C 15.4 °C 1017.8 hPa ESE 18.5 km/h 18.5 km/h 55 % 0.0 mm 598.0 W/m2 CLR
11:16 25.1 °C 15.2 °C 1017.8 hPa ENE 14.8 km/h 14.8 km/h 54 % 0.0 mm 796.0 W/m2 CLR
11:21 25.4 °C 14.8 °C 1017.8 hPa East 22.2 km/h 22.2 km/h 52 % 0.0 mm 724.0 W/m2 CLR
11:26 25.6 °C 15.0 °C 1017.8 hPa SE 16.7 km/h 16.7 km/h 52 % 0.0 mm 700.0 W/m2 CLR
11:31 25.7 °C 15.1 °C 1017.8 hPa ESE 13.0 km/h 13.0 km/h 52 % 0.0 mm 638.0 W/m2 CLR
11:36 25.7 °C 14.8 °C 1017.8 hPa ESE 18.5 km/h 18.5 km/h 51 % 0.0 mm 497.0 W/m2 CLR
11:41 25.6 °C 15.0 °C 1017.8 hPa ESE 20.4 km/h 20.4 km/h 52 % 0.0 mm 606.0 W/m2 CLR
11:46 25.4 °C 14.8 °C 1017.8 hPa ENE 18.5 km/h 18.5 km/h 52 % 0.0 mm 768.0 W/m2 CLR
11:51 25.3 °C 14.8 °C 1017.8 hPa East 22.2 km/h 22.2 km/h 52 % 0.0 mm 796.0 W/m2 CLR
11:56 25.6 °C 14.7 °C 1017.5 hPa ENE 20.9 km/h 20.9 km/h 51 % 0.0 mm 812.0 W/m2 CLR
12:01 25.7 °C 14.8 °C 1017.5 hPa East 22.2 km/h 22.2 km/h 51 % 0.0 mm 830.0 W/m2 CLR
12:06 25.9 °C 14.3 °C 1017.5 hPa East 22.2 km/h 22.2 km/h 49 % 0.0 mm 795.0 W/m2 CLR
12:11 25.9 °C 14.7 °C 1017.5 hPa ESE 18.5 km/h 18.5 km/h 50 % 0.0 mm 819.0 W/m2 CLR
12:16 26.2 °C 14.3 °C 1017.5 hPa ESE 31.5 km/h 31.5 km/h 48 % 0.0 mm 831.0 W/m2 CLR
12:21 26.1 °C 14.2 °C 1017.2 hPa East 27.8 km/h 27.8 km/h 48 % 0.0 mm 840.0 W/m2 CLR
12:27 26.2 °C 14.0 °C 1017.2 hPa ENE 31.5 km/h 31.5 km/h 47 % 0.0 mm 847.0 W/m2 CLR
12:32 26.4 °C 13.8 °C 1017.2 hPa ESE 18.5 km/h 18.5 km/h 46 % 0.0 mm 875.0 W/m2 CLR
12:33 26.3 °C 13.8 °C 1017.2 hPa East 29.6 km/h 29.6 km/h 46 % 0.0 mm 882.0 W/m2 CLR
12:38 26.6 °C 14.3 °C 1017.2 hPa ESE 22.2 km/h 22.2 km/h 47 % 0.0 mm 886.0 W/m2 CLR
12:43 26.8 °C 13.8 °C 1017.2 hPa East 22.2 km/h 22.2 km/h 45 % 0.0 mm 889.0 W/m2 CLR
12:48 27.1 °C 13.4 °C 1017.2 hPa ESE 22.2 km/h 22.2 km/h 43 % 0.0 mm 886.0 W/m2 CLR
12:53 27.0 °C 13.7 °C 1017.2 hPa SE 25.9 km/h 25.9 km/h 44 % 0.0 mm 891.0 W/m2 CLR
12:58 26.9 °C 13.3 °C 1016.8 hPa East 31.5 km/h 31.5 km/h 43 % 0.0 mm 902.0 W/m2 CLR
13:03 27.1 °C 13.4 °C 1016.8 hPa ESE 27.8 km/h 27.8 km/h 43 % 0.0 mm 909.0 W/m2 CLR
13:08 27.2 °C 13.5 °C 1016.8 hPa ESE 35.2 km/h 35.2 km/h 43 % 0.0 mm 914.0 W/m2 CLR
13:13 27.3 °C 13.6 °C 1016.8 hPa SE 24.1 km/h 24.1 km/h 43 % 0.0 mm 918.0 W/m2 CLR
13:18 27.3 °C 13.3 °C 1016.8 hPa East 32.2 km/h 32.2 km/h 42 % 0.0 mm 923.0 W/m2 CLR
13:23 27.5 °C 13.4 °C 1016.8 hPa SE 31.5 km/h 31.5 km/h 42 % 0.0 mm 928.0 W/m2 CLR
13:28 27.7 °C 13.7 °C 1016.8 hPa East 25.9 km/h 25.9 km/h 42 % 0.0 mm 935.0 W/m2 CLR
13:33 27.8 °C 13.4 °C 1016.5 hPa ESE 24.1 km/h 24.1 km/h 41 % 0.0 mm 939.0 W/m2 CLR
13:38 28.0 °C 13.5 °C 1016.5 hPa ESE 24.1 km/h 24.1 km/h 41 % 0.0 mm 940.0 W/m2 CLR
13:43 27.9 °C 13.4 °C 1016.8 hPa ESE 31.5 km/h 31.5 km/h 41 % 0.0 mm 947.0 W/m2 CLR
13:48 27.6 °C 13.6 °C 1016.8 hPa ESE 29.6 km/h 29.6 km/h 42 % 0.0 mm 958.0 W/m2 CLR
13:53 27.7 °C 13.7 °C 1016.5 hPa SE 22.5 km/h 22.5 km/h 42 % 0.0 mm 983.0 W/m2 CLR
13:58 27.8 °C 13.7 °C 1016.5 hPa ESE 27.8 km/h 27.8 km/h 42 % 0.0 mm 633.0 W/m2 CLR
14:03 27.9 °C 13.4 °C 1016.5 hPa SE 31.5 km/h 31.5 km/h 41 % 0.0 mm 926.0 W/m2 CLR
14:08 27.9 °C 13.4 °C 1016.1 hPa ESE 24.1 km/h 24.1 km/h 41 % 0.0 mm 939.0 W/m2 CLR
14:13 28.3 °C 13.0 °C 1016.1 hPa ESE 37.0 km/h 37.0 km/h 39 % 0.0 mm 925.0 W/m2 CLR
14:18 28.1 °C 13.2 °C 1016.1 hPa East 25.9 km/h 25.9 km/h 40 % 0.0 mm 933.0 W/m2 CLR
14:23 27.9 °C 13.4 °C 1016.1 hPa SE 22.5 km/h 22.5 km/h 41 % 0.0 mm 953.0 W/m2 CLR
14:28 28.3 °C 13.4 °C 1016.1 hPa ESE 22.2 km/h 22.2 km/h 40 % 0.0 mm 949.0 W/m2 CLR
14:33 28.4 °C 13.5 °C 1016.1 hPa SE 27.8 km/h 27.8 km/h 40 % 0.0 mm 914.0 W/m2 CLR
14:38 28.1 °C 13.2 °C 1016.1 hPa SE 31.5 km/h 31.5 km/h 40 % 0.0 mm 914.0 W/m2 CLR
14:39 28.1 °C 13.2 °C 1016.1 hPa ESE 32.2 km/h 32.2 km/h 40 % 0.0 mm 907.0 W/m2 CLR
14:44 27.9 °C 13.4 °C 1016.1 hPa East 25.9 km/h 25.9 km/h 41 % 0.0 mm 907.0 W/m2 CLR
14:49 27.8 °C 13.3 °C 1016.1 hPa SE 25.9 km/h 25.9 km/h 41 % 0.0 mm 904.0 W/m2 CLR
14:54 27.9 °C 13.4 °C 1015.8 hPa East 29.6 km/h 29.6 km/h 41 % 0.0 mm 902.0 W/m2 CLR
14:59 27.8 °C 13.4 °C 1015.8 hPa SE 31.5 km/h 31.5 km/h 41 % 0.0 mm 888.0 W/m2 CLR
15:04 28.0 °C 13.5 °C 1016.1 hPa SE 22.2 km/h 22.2 km/h 41 % 0.0 mm 875.0 W/m2 CLR
15:09 28.1 °C 13.2 °C 1015.8 hPa ESE 24.1 km/h 24.1 km/h 40 % 0.0 mm 886.0 W/m2 CLR
15:14 28.2 °C 13.3 °C 1015.8 hPa SE 29.6 km/h 29.6 km/h 40 % 0.0 mm 868.0 W/m2 CLR
15:19 28.2 °C 13.3 °C 1015.8 hPa ESE 25.9 km/h 25.9 km/h 40 % 0.0 mm 868.0 W/m2 CLR
15:24 28.2 °C 13.3 °C 1015.8 hPa ESE 24.1 km/h 24.1 km/h 40 % 0.0 mm 886.0 W/m2 CLR
15:29 28.2 °C 12.9 °C 1015.8 hPa ESE 37.0 km/h 37.0 km/h 39 % 0.0 mm 872.0 W/m2 CLR
15:34 28.1 °C 13.2 °C 1015.8 hPa East 18.5 km/h 18.5 km/h 40 % 0.0 mm 868.0 W/m2 CLR
15:39 28.3 °C 13.4 °C 1015.8 hPa East 22.2 km/h 22.2 km/h 40 % 0.0 mm 863.0 W/m2 CLR
15:44 28.2 °C 13.3 °C 1015.8 hPa ESE 20.9 km/h 20.9 km/h 40 % 0.0 mm 867.0 W/m2 CLR
15:49 28.2 °C 12.9 °C 1015.8 hPa East 33.3 km/h 33.3 km/h 39 % 0.0 mm 798.0 W/m2 CLR
15:54 28.3 °C 13.1 °C 1015.5 hPa East 31.5 km/h 31.5 km/h 39 % 0.0 mm 870.0 W/m2 CLR
15:59 28.2 °C 13.3 °C 1015.5 hPa SE 31.5 km/h 31.5 km/h 40 % 0.0 mm 856.0 W/m2 CLR
16:04 28.3 °C 13.4 °C 1015.5 hPa SE 24.1 km/h 24.1 km/h 40 % 0.0 mm 830.0 W/m2 CLR
16:09 28.5 °C 13.6 °C 1015.5 hPa East 25.9 km/h 25.9 km/h 40 % 0.0 mm 789.0 W/m2 CLR
16:14 28.4 °C 13.5 °C 1015.5 hPa ESE 25.9 km/h 25.9 km/h 40 % 0.0 mm 777.0 W/m2 CLR
16:19 28.2 °C 13.7 °C 1015.5 hPa ESE 27.8 km/h 27.8 km/h 41 % 0.0 mm 772.0 W/m2 CLR
16:24 28.1 °C 13.6 °C 1015.5 hPa ESE 33.3 km/h 33.3 km/h 41 % 0.0 mm 786.0 W/m2 CLR
16:29 28.1 °C 14.3 °C 1015.5 hPa SE 31.5 km/h 31.5 km/h 43 % 0.0 mm 793.0 W/m2 CLR
16:34 28.4 °C 14.3 °C 1015.5 hPa SE 27.8 km/h 27.8 km/h 42 % 0.0 mm 791.0 W/m2 CLR
16:39 28.7 °C 14.6 °C 1015.5 hPa ESE 20.4 km/h 20.4 km/h 42 % 0.0 mm 747.0 W/m2 CLR
16:44 28.4 °C 14.6 °C 1015.5 hPa SE 31.5 km/h 31.5 km/h 43 % 0.0 mm 563.0 W/m2 CLR
16:49 28.0 °C 14.3 °C 1015.5 hPa SSE 33.3 km/h 33.3 km/h 43 % 0.0 mm 610.0 W/m2 CLR
16:54 28.0 °C 14.3 °C 1015.5 hPa SE 27.8 km/h 27.8 km/h 43 % 0.0 mm 612.0 W/m2 CLR
16:59 27.9 °C 14.5 °C 1015.5 hPa SSE 31.5 km/h 31.5 km/h 44 % 0.0 mm 568.0 W/m2 CLR
17:04 27.9 °C 14.8 °C 1015.5 hPa SE 27.8 km/h 27.8 km/h 45 % 0.0 mm 613.0 W/m2 CLR
17:09 27.7 °C 14.7 °C 1015.5 hPa ESE 24.1 km/h 24.1 km/h 45 % 0.0 mm 524.0 W/m2 CLR
17:14 27.4 °C 14.4 °C 1015.5 hPa ESE 27.8 km/h 27.8 km/h 45 % 0.0 mm 404.0 W/m2 CLR
17:19 27.2 °C 14.6 °C 1015.5 hPa SE 25.9 km/h 25.9 km/h 46 % 0.0 mm 443.0 W/m2 CLR
17:24 27.3 °C 15.0 °C 1015.5 hPa SE 25.7 km/h 25.7 km/h 47 % 0.0 mm 519.0 W/m2 CLR
17:30 27.3 °C 15.1 °C 1015.5 hPa SSE 25.9 km/h 25.9 km/h 47 % 0.0 mm 410.0 W/m2 CLR
17:35 27.1 °C 14.8 °C 1015.5 hPa East 29.6 km/h 29.6 km/h 47 % 0.0 mm 285.0 W/m2 CLR
17:36 27.1 °C 14.8 °C 1015.5 hPa ESE 31.5 km/h 31.5 km/h 47 % 0.0 mm 281.0 W/m2 CLR
17:41 26.8 °C 14.8 °C 1015.1 hPa SSE 25.9 km/h 25.9 km/h 48 % 0.0 mm 424.0 W/m2 CLR
17:46 26.8 °C 14.9 °C 1015.1 hPa SE 27.8 km/h 27.8 km/h 48 % 0.0 mm 341.0 W/m2 CLR
17:51 26.6 °C 14.9 °C 1015.1 hPa SE 25.9 km/h 25.9 km/h 49 % 0.0 mm 292.0 W/m2 CLR
17:56 26.4 °C 14.8 °C 1015.1 hPa SE 18.5 km/h 18.5 km/h 49 % 0.0 mm 292.0 W/m2 CLR
18:01 26.6 °C 14.9 °C 1015.1 hPa SE 25.9 km/h 25.9 km/h 49 % 0.0 mm 313.0 W/m2 CLR
18:06 26.4 °C 14.8 °C 1015.1 hPa SE 24.1 km/h 24.1 km/h 49 % 0.0 mm 497.0 W/m2 CLR
18:11 26.6 °C 14.9 °C 1015.1 hPa SE 29.6 km/h 29.6 km/h 49 % 0.0 mm 580.0 W/m2 CLR
18:16 26.7 °C 14.8 °C 1015.1 hPa SE 29.6 km/h 29.6 km/h 48 % 0.0 mm 564.0 W/m2 CLR
18:21 26.6 °C 15.0 °C 1015.1 hPa SE 27.8 km/h 27.8 km/h 49 % 0.0 mm 541.0 W/m2 CLR
18:26 26.7 °C 14.8 °C 1015.1 hPa SE 29.6 km/h 29.6 km/h 48 % 0.0 mm 506.0 W/m2 CLR
18:31 26.6 °C 14.7 °C 1014.8 hPa SSE 27.8 km/h 27.8 km/h 48 % 0.0 mm 471.0 W/m2 CLR
18:36 26.7 °C 14.1 °C 1014.8 hPa SSE 27.8 km/h 27.8 km/h 46 % 0.0 mm 281.0 W/m2 CLR
18:41 26.5 °C 14.3 °C 1015.1 hPa SE 27.8 km/h 27.8 km/h 47 % 0.0 mm 200.0 W/m2 CLR
18:46 26.2 °C 14.0 °C 1014.8 hPa SE 25.9 km/h 25.9 km/h 47 % 0.0 mm 162.0 W/m2 CLR
18:51 26.1 °C 14.2 °C 1014.8 hPa SSE 20.9 km/h 20.9 km/h 48 % 0.0 mm 221.0 W/m2 CLR
18:56 26.1 °C 13.9 °C 1014.8 hPa SSE 19.3 km/h 19.3 km/h 47 % 0.0 mm 339.0 W/m2 CLR
19:01 26.0 °C 13.8 °C 1014.8 hPa SSE 25.7 km/h 25.7 km/h 47 % 0.0 mm 311.0 W/m2 CLR
19:06 26.1 °C 13.9 °C 1014.8 hPa SSE 24.1 km/h 24.1 km/h 47 % 0.0 mm 383.0 W/m2 CLR
19:11 26.0 °C 14.4 °C 1014.8 hPa ESE 18.5 km/h 18.5 km/h 49 % 0.0 mm 388.0 W/m2 CLR
19:16 25.7 °C 14.2 °C 1014.8 hPa SE 24.1 km/h 24.1 km/h 49 % 0.0 mm 381.0 W/m2 CLR
19:21 25.8 °C 14.3 °C 1014.8 hPa ESE 13.0 km/h 13.0 km/h 49 % 0.0 mm 336.0 W/m2 CLR
19:26 25.7 °C 14.4 °C 1014.8 hPa SE 18.5 km/h 18.5 km/h 50 % 0.0 mm 237.0 W/m2 CLR
19:31 25.5 °C 14.3 °C 1014.8 hPa ESE 16.7 km/h 16.7 km/h 50 % 0.0 mm 207.0 W/m2 CLR
19:36 25.3 °C 14.1 °C 1014.8 hPa ESE 18.5 km/h 18.5 km/h 50 % 0.0 mm 141.0 W/m2 CLR
19:41 25.1 °C 13.9 °C 1014.8 hPa ESE 20.4 km/h 20.4 km/h 50 % 0.0 mm 121.0 W/m2 CLR
19:46 25.0 °C 13.8 °C 1014.8 hPa SE 27.8 km/h 27.8 km/h 50 % 0.0 mm 128.0 W/m2 CLR
19:51 24.9 °C 13.8 °C 1014.8 hPa SE 18.5 km/h 18.5 km/h 50 % 0.0 mm 90.0 W/m2 CLR
19:56 24.9 °C 14.1 °C 1014.8 hPa SE 20.9 km/h 20.9 km/h 51 % 0.0 mm 72.0 W/m2 CLR
20:01 24.7 °C 13.9 °C 1014.8 hPa ESE 19.3 km/h 19.3 km/h 51 % 0.0 mm 69.0 W/m2 FEW
20:06 24.6 °C 13.7 °C 1014.8 hPa ESE 20.4 km/h 20.4 km/h 51 % 0.0 mm 58.0 W/m2 FEW
20:11 24.4 °C 13.7 °C 1014.8 hPa SE 18.5 km/h 18.5 km/h 51 % 0.0 mm 51.0 W/m2 SCT
20:16 24.4 °C 13.6 °C 1014.8 hPa SE 18.5 km/h 18.5 km/h 51 % 0.0 mm 47.0 W/m2 SCT
20:21 24.3 °C 13.5 °C 1015.1 hPa SE 18.5 km/h 18.5 km/h 51 % 0.0 mm 44.0 W/m2 SCT
20:26 24.1 °C 13.3 °C 1015.1 hPa SE 18.5 km/h 18.5 km/h 51 % 0.0 mm 40.0 W/m2 BKN
20:31 24.0 °C 13.2 °C 1015.1 hPa SE 18.5 km/h 18.5 km/h 51 % 0.0 mm 37.0 W/m2 BKN
20:36 23.9 °C 13.2 °C 1015.1 hPa ESE 11.1 km/h 11.1 km/h 51 % 0.0 mm 33.0 W/m2 BKN
20:41 23.8 °C 13.1 °C 1015.1 hPa SSE 14.8 km/h 14.8 km/h 51 % 0.0 mm 32.0 W/m2 BKN
20:46 23.7 °C 13.2 °C 1015.1 hPa SE 7.4 km/h 7.4 km/h 52 % 0.0 mm 28.0 W/m2 BKN
20:51 23.6 °C 13.2 °C 1015.1 hPa SE 9.3 km/h 9.3 km/h 52 % 0.0 mm 23.0 W/m2 BKN
20:56 23.5 °C 13.1 °C 1015.1 hPa SE 12.9 km/h 12.9 km/h 52 % 0.0 mm 19.0 W/m2 BKN
21:01 23.4 °C 13.3 °C 1015.5 hPa SSE 5.6 km/h 5.6 km/h 53 % 0.0 mm 14.0 W/m2 BKN
21:06 23.3 °C 13.2 °C 1015.1 hPa ESE 4.8 km/h 4.8 km/h 53 % 0.0 mm 11.0 W/m2 BKN
21:11 23.1 °C 13.3 °C 1015.5 hPa Calm     54 % 0.0 mm 5.0 W/m2 BKN
21:16 23.0 °C 13.2 °C 1015.5 hPa Calm     54 % 0.0 mm 0.0 W/m2 OVC
21:21 22.9 °C 13.4 °C 1015.5 hPa Calm     55 % 0.0 mm 0.0 W/m2 OVC
21:26 22.7 °C 13.2 °C 1015.5 hPa Calm     55 % 0.0 mm 0.0 W/m2 OVC
21:31 22.6 °C 13.4 °C 1015.5 hPa Calm     56 % 0.0 mm 0.0 W/m2 OVC
21:36 22.4 °C 13.2 °C 1015.5 hPa Calm     56 % 0.0 mm 0.0 W/m2 CLR
21:41 22.3 °C 13.3 °C 1015.5 hPa Calm     57 % 0.0 mm 0.0 W/m2 CLR
21:46 22.1 °C 13.2 °C 1015.5 hPa Calm     57 % 0.0 mm 0.0 W/m2 CLR
21:51 22.0 °C 13.3 °C 1015.5 hPa Calm     58 % 0.0 mm 0.0 W/m2 CLR
21:56 21.8 °C 13.2 °C 1015.5 hPa Calm     58 % 0.0 mm 0.0 W/m2 CLR
22:01 21.8 °C 13.2 °C 1015.5 hPa Calm     58 % 0.0 mm 0.0 W/m2 CLR
22:06 21.7 °C 13.1 °C 1015.8 hPa Calm     58 % 0.0 mm 0.0 W/m2 CLR
22:11 21.7 °C 13.1 °C 1015.8 hPa Calm     58 % 0.0 mm 0.0 W/m2 CLR
22:16 21.7 °C 13.1 °C 1015.8 hPa Calm     58 % 0.0 mm 0.0 W/m2 CLR
22:21 21.6 °C 13.0 °C 1015.8 hPa Calm     58 % 0.0 mm 0.0 W/m2 CLR
22:26 21.5 °C 12.9 °C 1015.8 hPa Calm     58 % 0.0 mm 0.0 W/m2 CLR
22:31 21.4 °C 13.1 °C 1015.8 hPa Calm     59 % 0.0 mm 0.0 W/m2 CLR
22:36 21.3 °C 12.9 °C 1015.8 hPa Calm     59 % 0.0 mm 0.0 W/m2 CLR
22:41 21.2 °C 12.9 °C 1016.1 hPa Calm     59 % 0.0 mm 0.0 W/m2 CLR
22:47 21.1 °C 12.7 °C 1016.1 hPa Calm     59 % 0.0 mm 0.0 W/m2 CLR
22:52 21.0 °C 12.9 °C 1015.8 hPa Calm     60 % 0.0 mm 0.0 W/m2 CLR
22:57 20.8 °C 13.1 °C 1015.8 hPa SE 3.7 km/h   61 % 0.0 mm 0.0 W/m2 CLR
23:02 20.7 °C 12.9 °C 1015.8 hPa SSE 3.7 km/h   61 % 0.0 mm 0.0 W/m2 CLR
23:07 20.6 °C 13.0 °C 1016.1 hPa Calm     62 % 0.0 mm 0.0 W/m2 CLR
23:12 20.4 °C 12.9 °C 1016.1 hPa Calm     62 % 0.0 mm 0.0 W/m2 CLR
23:17 20.4 °C 13.1 °C 1016.1 hPa Calm     63 % 0.0 mm 0.0 W/m2 CLR
23:22 20.3 °C 13.3 °C 1016.1 hPa Calm     64 % 0.0 mm 0.0 W/m2 CLR
23:27 20.3 °C 13.3 °C 1016.1 hPa ESE 5.6 km/h 5.6 km/h 64 % 0.0 mm 0.0 W/m2 CLR
23:32 20.3 °C 13.6 °C 1016.1 hPa ESE 5.6 km/h 5.6 km/h 65 % 0.0 mm 0.0 W/m2 CLR
23:37 20.3 °C 13.6 °C 1016.5 hPa Calm     65 % 0.0 mm 0.0 W/m2 CLR
23:42 20.3 °C 13.5 °C 1016.5 hPa Calm     65 % 0.0 mm 0.0 W/m2 CLR
23:47 20.2 °C 13.7 °C 1016.5 hPa Calm     66 % 0.0 mm 0.0 W/m2 CLR
23:52 20.1 °C 13.6 °C 1016.5 hPa Calm     66 % 0.0 mm 0.0 W/m2 CLR
23:57 20.1 °C 13.5 °C 1016.1 hPa Calm     66 % 0.0 mm 0.0 W/m2 CLR
Lo Temps de Massalio
Compliments of Weather Underground - 1.25 mb